Buoy 55944

sailwx.info

Track history (hours):
 
Tides and Currents Weather Stations Pressure Air Temp Water Temp Dewpoint Dewpoint Depression Visibility Wind Speed Wind Dir Waves Ship Positions

Drifting buoy 55944

Last reported at 2018-Apr-20 06:00 UTC. Time now 2018-Apr-20 07:05 UTC.
Position S 38°04' E 159°43'.

Water temperature 19.4 ° C

Date/timePositionNaut miles runAvg speedWind from/ knotsBaromVisibWave heightAir tempDewpointWater temp
2018-Apr-20 06:00S 38°04' E 159°43'0 0.5 19.4
2018-Apr-20 05:00S 38°04' E 159°43'1 0.6 19.4
2018-Apr-20 04:00S 38°04' E 159°43'0 0.0 19.4
2018-Apr-20 03:00S 38°04' E 159°43'2 0.4 19.4
2018-Apr-19 23:00S 38°02' E 159°44'0 0.5 19.2
2018-Apr-19 22:00S 38°02' E 159°45'1 0.8 19.2
2018-Apr-19 21:00S 38°03' E 159°44'0 0.0 19.2
2018-Apr-19 20:00S 38°03' E 159°44'0 0.5 19.1
2018-Apr-19 19:00S 38°03' E 159°44'0 0.5 19.2
2018-Apr-19 18:00S 38°03' E 159°43'0 0.0 19.2
2018-Apr-19 17:00S 38°03' E 159°43'1 0.8 19.2
2018-Apr-19 16:00S 38°02' E 159°43'0 0.0 19.2
2018-Apr-19 15:00S 38°02' E 159°43'2 0.8 19.2
2018-Apr-19 12:00S 38°01' E 159°41'1 1.2 19.2
2018-Apr-19 11:00S 37°59' E 159°41'0 0.0 19.2
2018-Apr-19 10:00S 37°59' E 159°41'1 1.2 19.2
2018-Apr-19 09:00S 37°58' E 159°41'1 0.6 19.2
2018-Apr-19 08:00S 37°58' E 159°41'2 0.8 19.2
2018-Apr-19 06:00S 37°56' E 159°42'0 0.0 19.3
2018-Apr-19 05:00S 37°56' E 159°42'0 0.0 19.3
2018-Apr-19 04:00S 37°56' E 159°42'1 0.1 19.3
2018-Apr-18 23:00S 37°57' E 159°42'1 0.8 19.2
2018-Apr-18 22:00S 37°56' E 159°41'0 0.0 19.2
2018-Apr-18 21:00S 37°56' E 159°41'1 1.1 19.2
2018-Apr-18 20:00S 37°56' E 159°40'0 0.0 19.2
2018-Apr-18 19:00S 37°56' E 159°40'1 0.8 19.2
2018-Apr-18 18:00S 37°55' E 159°40'0 0.0 19.2
2018-Apr-18 17:00S 37°55' E 159°40'1 0.6 19.2
2018-Apr-18 16:00S 37°55' E 159°40'0 0.0 19.2
2018-Apr-18 15:00S 37°55' E 159°40'2 0.7 19.2
2018-Apr-18 12:00S 37°53' E 159°41'1 0.8 19.2
2018-Apr-18 11:00S 37°52' E 159°41'0 0.5 19.2
2018-Apr-18 10:00S 37°52' E 159°42'0 0.5 19.2
2018-Apr-18 09:00S 37°52' E 159°43'1 0.8 19.2
2018-Apr-18 08:00S 37°53' E 159°43'1 0.6 19.2
2018-Apr-18 06:00S 37°53' E 159°44'1 0.6 19.2
2018-Apr-18 04:00S 37°55' E 159°44'2 0.5 19.3
2018-Apr-18 00:00S 37°56' E 159°43'1 0.8 19.4
2018-Apr-17 23:00S 37°56' E 159°43'1 0.8 19.4
2018-Apr-17 22:00S 37°56' E 159°43'1 0.6 19.4
2018-Apr-17 21:00S 37°56' E 159°43'0 0.5 19.4
2018-Apr-17 20:00S 37°56' E 159°43'1 0.6 19.4
2018-Apr-17 19:00S 37°56' E 159°43'0 0.5 19.4
2018-Apr-17 18:00S 37°56' E 159°44'0 0.5 19.5
2018-Apr-17 17:00S 37°56' E 159°44'1 0.8 19.5
2018-Apr-17 16:00S 37°56' E 159°45'0 0.0 19.5
2018-Apr-17 15:00S 37°56' E 159°45'2 0.6 19.6
2018-Apr-17 12:00S 37°58' E 159°46'0 0.0 19.6
2018-Apr-17 11:00S 37°58' E 159°46'1 0.6 19.7
2018-Apr-17 10:00S 37°59' E 159°46'1 0.6 19.7
2018-Apr-17 09:00S 37°59' E 159°46'1 1.1 19.8
2018-Apr-17 08:00S 38°00' E 159°44'0 0.0 19.8
2018-Apr-17 07:00S 38°00' E 159°44'1 1.2 19.9
2018-Apr-17 06:00S 38°01' E 159°44'0 0.5 19.9
2018-Apr-17 05:00S 38°01' E 159°44'0 0.0 19.9
2018-Apr-17 04:00S 38°01' E 159°44'3 0.4 19.9
2018-Apr-16 22:00S 38°00' E 159°41'1 0.8 20.0
2018-Apr-16 21:00S 37°59' E 159°41'0 0.0 20.0
2018-Apr-16 20:00S 37°59' E 159°41'1 0.8 20.0
2018-Apr-16 19:00S 38°00' E 159°41'2 1.5 20.0
2018-Apr-16 18:00S 38°01' E 159°42'0 0.0 20.0
2018-Apr-16 17:00S 38°01' E 159°42'0 0.5 20.0
2018-Apr-16 16:00S 38°01' E 159°41'3 0.7 20.0
2018-Apr-16 12:00S 38°03' E 159°39'2 1.5 20.2
2018-Apr-16 11:00S 38°02' E 159°37'1 0.8 20.3
2018-Apr-16 10:00S 38°03' E 159°38'1 0.8 20.3
2018-Apr-16 09:00S 38°02' E 159°37'2 0.8 20.3
2018-Apr-16 07:00S 38°02' E 159°35'1 0.8 20.3
2018-Apr-16 06:00S 38°01' E 159°36'1 0.8 20.4
2018-Apr-16 05:00S 38°01' E 159°35'3 3.1 20.4
2018-Apr-16 04:00S 37°59' E 159°32'1 0.2 20.4
2018-Apr-15 23:00S 38°00' E 159°33'2 1.5 20.4
2018-Apr-15 22:00S 37°59' E 159°31'0 0.0 20.4
2018-Apr-15 21:00S 37°59' E 159°31'1 0.8 20.5
2018-Apr-15 20:00S 38°00' E 159°31'0 0.0 20.5
2018-Apr-15 19:00S 38°00' E 159°31'0 0.5 20.5
2018-Apr-15 18:00S 38°00' E 159°30'3 1.4 20.5
2018-Apr-15 16:00S 37°59' E 159°26'1 0.2 20.6
2018-Apr-15 12:00S 37°59' E 159°26'0 0.0 20.3
2018-Apr-15 11:00S 37°59' E 159°26'1 0.9 20.2
2018-Apr-15 10:00S 37°59' E 159°25'0 0.0 20.2
2018-Apr-15 09:00S 37°59' E 159°25'2 1.9 20.3
2018-Apr-15 08:00S 37°59' E 159°22'0 0.5 20.3
2018-Apr-15 07:00S 37°59' E 159°22'0 0.0 20.3
2018-Apr-15 06:00S 37°59' E 159°22'1 0.6 20.3
2018-Apr-15 04:00S 37°59' E 159°20'2 0.5 20.3
2018-Apr-14 23:00S 37°59' E 159°17'2 1.2 20.0
2018-Apr-14 21:00S 37°58' E 159°14'3 1.0 19.9
2018-Apr-14 18:00S 37°56' E 159°12'0 0.0 20.0
2018-Apr-14 16:00S 37°56' E 159°12'2 1.9 20.1
2018-Apr-14 15:00S 37°54' E 159°11'1 0.2 20.0
2018-Apr-14 12:00S 37°53' E 159°11'1 0.6 20.0
2018-Apr-14 11:00S 37°53' E 159°11'1 0.9 20.0
2018-Apr-14 10:00S 37°53' E 159°10'1 0.8 20.0
2018-Apr-14 09:00S 37°52' E 159°10'0 0.0 20.0
2018-Apr-14 08:00S 37°52' E 159°10'1 0.8 20.0
2018-Apr-14 07:00S 37°52' E 159°09'2 1.5 20.1
2018-Apr-14 06:00S 37°51' E 159°07'0 0.5 20.1
2018-Apr-14 05:00S 37°51' E 159°08'0 0.0 20.1
2018-Apr-14 04:00S 37°51' E 159°08'4 0.9 20.1
2018-Apr-13 23:00S 37°47' E 159°05'1 0.6 20.1
2018-Apr-13 22:00S 37°47' E 159°05'1 0.6 20.1
2018-Apr-13 21:00S 37°46' E 159°05'2 0.5 20.1
2018-Apr-13 17:00S 37°46' E 159°02'1 0.8 20.1
2018-Apr-13 16:00S 37°46' E 159°03'0 0.0 20.1
2018-Apr-13 15:00S 37°46' E 159°03'1 0.4 20.1
2018-Apr-13 12:00S 37°45' E 159°02'0 0.0 20.1
2018-Apr-13 11:00S 37°45' E 159°02'0 0.0 20.1
2018-Apr-13 10:00S 37°45' E 159°02'0 0.5 20.1
2018-Apr-13 09:00S 37°45' E 159°01'0 0.2 20.1
2018-Apr-13 07:00S 37°45' E 159°01'1 0.5 20.2
2018-Apr-13 05:00S 37°45' E 158°59'2 0.4 20.2
2018-Apr-12 23:00S 37°44' E 158°57'0 0.5 20.2
2018-Apr-12 22:00S 37°44' E 158°56'2 0.8 20.2
2018-Apr-12 20:00S 37°44' E 158°55'0 0.0 20.2
2018-Apr-12 19:00S 37°44' E 158°55'2 0.8 20.2
2018-Apr-12 17:00S 37°45' E 158°53'2 1.9 20.2
2018-Apr-12 16:00S 37°45' E 158°50'0 0.0 20.1
2018-Apr-12 15:00S 37°45' E 158°50'4 1.4 20.1
2018-Apr-12 12:00S 37°42' E 158°47'0 0.0 20.1
2018-Apr-12 11:00S 37°42' E 158°47'1 0.8 20.1
2018-Apr-12 10:00S 37°41' E 158°46'1 0.8 20.1
2018-Apr-12 09:00S 37°41' E 158°46'1 0.8 20.1
2018-Apr-12 08:00S 37°40' E 158°45'1 1.1 20.1
2018-Apr-12 07:00S 37°40' E 158°46'0 0.0 20.2
2018-Apr-12 06:00S 37°40' E 158°46'1 0.8 20.2
2018-Apr-12 05:00S 37°39' E 158°46'0 0.5 20.2
2018-Apr-12 04:00S 37°39' E 158°46'1 0.1 20.2
2018-Apr-11 22:00S 37°40' E 158°46'2 1.5 20.3
2018-Apr-11 21:00S 37°40' E 158°44'0 0.0 20.3
2018-Apr-11 20:00S 37°40' E 158°44'1 0.9 20.3
2018-Apr-11 19:00S 37°40' E 158°43'2 1.0 20.4
2018-Apr-11 17:00S 37°40' E 158°40'1 0.4 20.4
2018-Apr-11 15:00S 37°39' E 158°40'2 0.8 20.4
2018-Apr-11 12:00S 37°37' E 158°38'1 0.6 20.4
2018-Apr-11 11:00S 37°37' E 158°38'1 0.8 20.4
2018-Apr-11 10:00S 37°36' E 158°38'1 0.4 20.4
2018-Apr-11 08:00S 37°35' E 158°39'0 0.0 20.4
2018-Apr-11 07:00S 37°35' E 158°39'0 0.0 20.5
2018-Apr-11 06:00S 37°35' E 158°39'1 0.6 20.5
2018-Apr-11 05:00S 37°36' E 158°39'0 0.0 20.6
2018-Apr-11 04:00S 37°36' E 158°39'0 0.0 20.6
2018-Apr-11 03:00S 37°36' E 158°39'2 0.6 20.6
2018-Apr-10 23:00S 37°36' E 158°36'1 1.0 20.6
2018-Apr-10 22:00S 37°36' E 158°35'0 0.5 20.5
2018-Apr-10 21:00S 37°36' E 158°34'1 0.8 20.5
2018-Apr-10 20:00S 37°35' E 158°35'1 0.2 20.5
2018-Apr-10 17:00S 37°35' E 158°35'1 0.8 20.5
2018-Apr-10 16:00S 37°34' E 158°35'3 0.7 20.5
2018-Apr-10 12:00S 37°36' E 158°38'1 0.8 20.4
2018-Apr-10 11:00S 37°37' E 158°38'0 0.0 20.4
2018-Apr-10 10:00S 37°37' E 158°38'1 0.6 20.4
2018-Apr-10 09:00S 37°37' E 158°38'1 1.3 20.4
2018-Apr-10 08:00S 37°38' E 158°38'1 1.0 20.4
2018-Apr-10 07:00S 37°38' E 158°39'1 0.6 20.5
2018-Apr-10 06:00S 37°39' E 158°39'   20.5
Track history (hours):
 
Tides and Currents Weather Stations Pressure Air Temp Water Temp Dewpoint Dewpoint Depression Visibility Wind Speed Wind Dir Waves Ship Positions

Drifting buoy 55944

Last reported at 2018-Apr-20 06:00 UTC. Time now 2018-Apr-20 07:05 UTC.
Position S 38°04' E 159°43'.

Water temperature 19.4 ° C

Date/timePositionNaut miles runAvg speedWind from/ knotsBaromVisibWave heightAir tempDewpointWater temp
2018-Apr-20 06:00S 38°04' E 159°43'0 0.5 19.4
2018-Apr-20 05:00S 38°04' E 159°43'1 0.6 19.4
2018-Apr-20 04:00S 38°04' E 159°43'0 0.0 19.4
2018-Apr-20 03:00S 38°04' E 159°43'2 0.4 19.4
2018-Apr-19 23:00S 38°02' E 159°44'0 0.5 19.2
2018-Apr-19 22:00S 38°02' E 159°45'1 0.8 19.2
2018-Apr-19 21:00S 38°03' E 159°44'0 0.0 19.2
2018-Apr-19 20:00S 38°03' E 159°44'0 0.5 19.1
2018-Apr-19 19:00S 38°03' E 159°44'0 0.5 19.2
2018-Apr-19 18:00S 38°03' E 159°43'0 0.0 19.2
2018-Apr-19 17:00S 38°03' E 159°43'1 0.8 19.2
2018-Apr-19 16:00S 38°02' E 159°43'0 0.0 19.2
2018-Apr-19 15:00S 38°02' E 159°43'2 0.8 19.2
2018-Apr-19 12:00S 38°01' E 159°41'1 1.2 19.2
2018-Apr-19 11:00S 37°59' E 159°41'0 0.0 19.2
2018-Apr-19 10:00S 37°59' E 159°41'1 1.2 19.2
2018-Apr-19 09:00S 37°58' E 159°41'1 0.6 19.2
2018-Apr-19 08:00S 37°58' E 159°41'2 0.8 19.2
2018-Apr-19 06:00S 37°56' E 159°42'0 0.0 19.3
2018-Apr-19 05:00S 37°56' E 159°42'0 0.0 19.3
2018-Apr-19 04:00S 37°56' E 159°42'1 0.1 19.3
2018-Apr-18 23:00S 37°57' E 159°42'1 0.8 19.2
2018-Apr-18 22:00S 37°56' E 159°41'0 0.0 19.2
2018-Apr-18 21:00S 37°56' E 159°41'1 1.1 19.2
2018-Apr-18 20:00S 37°56' E 159°40'0 0.0 19.2
2018-Apr-18 19:00S 37°56' E 159°40'1 0.8 19.2
2018-Apr-18 18:00S 37°55' E 159°40'0 0.0 19.2
2018-Apr-18 17:00S 37°55' E 159°40'1 0.6 19.2
2018-Apr-18 16:00S 37°55' E 159°40'0 0.0 19.2
2018-Apr-18 15:00S 37°55' E 159°40'2 0.7 19.2
2018-Apr-18 12:00S 37°53' E 159°41'1 0.8 19.2
2018-Apr-18 11:00S 37°52' E 159°41'0 0.5 19.2
2018-Apr-18 10:00S 37°52' E 159°42'0 0.5 19.2
2018-Apr-18 09:00S 37°52' E 159°43'1 0.8 19.2
2018-Apr-18 08:00S 37°53' E 159°43'1 0.6 19.2
2018-Apr-18 06:00S 37°53' E 159°44'1 0.6 19.2
2018-Apr-18 04:00S 37°55' E 159°44'2 0.5 19.3
2018-Apr-18 00:00S 37°56' E 159°43'1 0.8 19.4
2018-Apr-17 23:00S 37°56' E 159°43'1 0.8 19.4
2018-Apr-17 22:00S 37°56' E 159°43'1 0.6 19.4
2018-Apr-17 21:00S 37°56' E 159°43'0 0.5 19.4
2018-Apr-17 20:00S 37°56' E 159°43'1 0.6 19.4
2018-Apr-17 19:00S 37°56' E 159°43'0 0.5 19.4
2018-Apr-17 18:00S 37°56' E 159°44'0 0.5 19.5
2018-Apr-17 17:00S 37°56' E 159°44'1 0.8 19.5
2018-Apr-17 16:00S 37°56' E 159°45'0 0.0 19.5
2018-Apr-17 15:00S 37°56' E 159°45'2 0.6 19.6
2018-Apr-17 12:00S 37°58' E 159°46'0 0.0 19.6
2018-Apr-17 11:00S 37°58' E 159°46'1 0.6 19.7
2018-Apr-17 10:00S 37°59' E 159°46'1 0.6 19.7
2018-Apr-17 09:00S 37°59' E 159°46'1 1.1 19.8
2018-Apr-17 08:00S 38°00' E 159°44'0 0.0 19.8
2018-Apr-17 07:00S 38°00' E 159°44'1 1.2 19.9
2018-Apr-17 06:00S 38°01' E 159°44'0 0.5 19.9
2018-Apr-17 05:00S 38°01' E 159°44'0 0.0 19.9
2018-Apr-17 04:00S 38°01' E 159°44'3 0.4 19.9
2018-Apr-16 22:00S 38°00' E 159°41'1 0.8 20.0
2018-Apr-16 21:00S 37°59' E 159°41'0 0.0 20.0
2018-Apr-16 20:00S 37°59' E 159°41'1 0.8 20.0
2018-Apr-16 19:00S 38°00' E 159°41'2 1.5 20.0
2018-Apr-16 18:00S 38°01' E 159°42'0 0.0 20.0
2018-Apr-16 17:00S 38°01' E 159°42'0 0.5 20.0
2018-Apr-16 16:00S 38°01' E 159°41'3 0.7 20.0
2018-Apr-16 12:00S 38°03' E 159°39'2 1.5 20.2
2018-Apr-16 11:00S 38°02' E 159°37'1 0.8 20.3
2018-Apr-16 10:00S 38°03' E 159°38'1 0.8 20.3
2018-Apr-16 09:00S 38°02' E 159°37'2 0.8 20.3
2018-Apr-16 07:00S 38°02' E 159°35'1 0.8 20.3
2018-Apr-16 06:00S 38°01' E 159°36'1 0.8 20.4
2018-Apr-16 05:00S 38°01' E 159°35'3 3.1 20.4
2018-Apr-16 04:00S 37°59' E 159°32'1 0.2 20.4
2018-Apr-15 23:00S 38°00' E 159°33'2 1.5 20.4
2018-Apr-15 22:00S 37°59' E 159°31'0 0.0 20.4
2018-Apr-15 21:00S 37°59' E 159°31'1 0.8 20.5
2018-Apr-15 20:00S 38°00' E 159°31'0 0.0 20.5
2018-Apr-15 19:00S 38°00' E 159°31'0 0.5 20.5
2018-Apr-15 18:00S 38°00' E 159°30'3 1.4 20.5
2018-Apr-15 16:00S 37°59' E 159°26'1 0.2 20.6
2018-Apr-15 12:00S 37°59' E 159°26'0 0.0 20.3
2018-Apr-15 11:00S 37°59' E 159°26'1 0.9 20.2
2018-Apr-15 10:00S 37°59' E 159°25'0 0.0 20.2
2018-Apr-15 09:00S 37°59' E 159°25'2 1.9 20.3
2018-Apr-15 08:00S 37°59' E 159°22'0 0.5 20.3
2018-Apr-15 07:00S 37°59' E 159°22'0 0.0 20.3
2018-Apr-15 06:00S 37°59' E 159°22'1 0.6 20.3
2018-Apr-15 04:00S 37°59' E 159°20'2 0.5 20.3
2018-Apr-14 23:00S 37°59' E 159°17'2 1.2 20.0
2018-Apr-14 21:00S 37°58' E 159°14'3 1.0 19.9
2018-Apr-14 18:00S 37°56' E 159°12'0 0.0 20.0
2018-Apr-14 16:00S 37°56' E 159°12'2 1.9 20.1
2018-Apr-14 15:00S 37°54' E 159°11'1 0.2 20.0
2018-Apr-14 12:00S 37°53' E 159°11'1 0.6 20.0
2018-Apr-14 11:00S 37°53' E 159°11'1 0.9 20.0
2018-Apr-14 10:00S 37°53' E 159°10'1 0.8 20.0
2018-Apr-14 09:00S 37°52' E 159°10'0 0.0 20.0
2018-Apr-14 08:00S 37°52' E 159°10'1 0.8 20.0
2018-Apr-14 07:00S 37°52' E 159°09'2 1.5 20.1
2018-Apr-14 06:00S 37°51' E 159°07'0 0.5 20.1
2018-Apr-14 05:00S 37°51' E 159°08'0 0.0 20.1
2018-Apr-14 04:00S 37°51' E 159°08'4 0.9 20.1
2018-Apr-13 23:00S 37°47' E 159°05'1 0.6 20.1
2018-Apr-13 22:00S 37°47' E 159°05'1 0.6 20.1
2018-Apr-13 21:00S 37°46' E 159°05'2 0.5 20.1
2018-Apr-13 17:00S 37°46' E 159°02'1 0.8 20.1
2018-Apr-13 16:00S 37°46' E 159°03'0 0.0 20.1
2018-Apr-13 15:00S 37°46' E 159°03'1 0.4 20.1
2018-Apr-13 12:00S 37°45' E 159°02'0 0.0 20.1
2018-Apr-13 11:00S 37°45' E 159°02'0 0.0 20.1
2018-Apr-13 10:00S 37°45' E 159°02'0 0.5 20.1
2018-Apr-13 09:00S 37°45' E 159°01'0 0.2 20.1
2018-Apr-13 07:00S 37°45' E 159°01'1 0.5 20.2
2018-Apr-13 05:00S 37°45' E 158°59'2 0.4 20.2
2018-Apr-12 23:00S 37°44' E 158°57'0 0.5 20.2
2018-Apr-12 22:00S 37°44' E 158°56'2 0.8 20.2
2018-Apr-12 20:00S 37°44' E 158°55'0 0.0 20.2
2018-Apr-12 19:00S 37°44' E 158°55'2 0.8 20.2
2018-Apr-12 17:00S 37°45' E 158°53'2 1.9 20.2
2018-Apr-12 16:00S 37°45' E 158°50'0 0.0 20.1
2018-Apr-12 15:00S 37°45' E 158°50'4 1.4 20.1
2018-Apr-12 12:00S 37°42' E 158°47'0 0.0 20.1
2018-Apr-12 11:00S 37°42' E 158°47'1 0.8 20.1
2018-Apr-12 10:00S 37°41' E 158°46'1 0.8 20.1
2018-Apr-12 09:00S 37°41' E 158°46'1 0.8 20.1
2018-Apr-12 08:00S 37°40' E 158°45'1 1.1 20.1
2018-Apr-12 07:00S 37°40' E 158°46'0 0.0 20.2
2018-Apr-12 06:00S 37°40' E 158°46'1 0.8 20.2
2018-Apr-12 05:00S 37°39' E 158°46'0 0.5 20.2
2018-Apr-12 04:00S 37°39' E 158°46'1 0.1 20.2
2018-Apr-11 22:00S 37°40' E 158°46'2 1.5 20.3
2018-Apr-11 21:00S 37°40' E 158°44'0 0.0 20.3
2018-Apr-11 20:00S 37°40' E 158°44'1 0.9 20.3
2018-Apr-11 19:00S 37°40' E 158°43'2 1.0 20.4
2018-Apr-11 17:00S 37°40' E 158°40'1 0.4 20.4
2018-Apr-11 15:00S 37°39' E 158°40'2 0.8 20.4
2018-Apr-11 12:00S 37°37' E 158°38'1 0.6 20.4
2018-Apr-11 11:00S 37°37' E 158°38'1 0.8 20.4
2018-Apr-11 10:00S 37°36' E 158°38'1 0.4 20.4
2018-Apr-11 08:00S 37°35' E 158°39'0 0.0 20.4
2018-Apr-11 07:00S 37°35' E 158°39'0 0.0 20.5
2018-Apr-11 06:00S 37°35' E 158°39'1 0.6 20.5
2018-Apr-11 05:00S 37°36' E 158°39'0 0.0 20.6
2018-Apr-11 04:00S 37°36' E 158°39'0 0.0 20.6
2018-Apr-11 03:00S 37°36' E 158°39'2 0.6 20.6
2018-Apr-10 23:00S 37°36' E 158°36'1 1.0 20.6
2018-Apr-10 22:00S 37°36' E 158°35'0 0.5 20.5
2018-Apr-10 21:00S 37°36' E 158°34'1 0.8 20.5
2018-Apr-10 20:00S 37°35' E 158°35'1 0.2 20.5
2018-Apr-10 17:00S 37°35' E 158°35'1 0.8 20.5
2018-Apr-10 16:00S 37°34' E 158°35'3 0.7 20.5
2018-Apr-10 12:00S 37°36' E 158°38'1 0.8 20.4
2018-Apr-10 11:00S 37°37' E 158°38'0 0.0 20.4
2018-Apr-10 10:00S 37°37' E 158°38'1 0.6 20.4
2018-Apr-10 09:00S 37°37' E 158°38'1 1.3 20.4
2018-Apr-10 08:00S 37°38' E 158°38'1 1.0 20.4
2018-Apr-10 07:00S 37°38' E 158°39'1 0.6 20.5
2018-Apr-10 06:00S 37°39' E 158°39'   20.5

Dump ship's entire track history